Terminal Aerodrome Forecast
Issued by NWS Corpus Christi, TX

Home | Current Version | Previous Version | Text Only | Print | Product List | Glossary On
Versions: 1 2 3 4 5 6 7 8 9 10 11 12 13 14 15 16 17
000
FTUS44 KCRP 011700
TAFVCT
TAF
KVCT 011736Z 0118/0218 17010KT P6SM SCT025
     FM020100 16008KT P6SM SCT015
     FM020700 16005KT 5SM BR SCT015
      TEMPO 0208/0212 3SM BR BKN015
     FM021600 17012KT P6SM BKN030=

USA.gov is the U.S. government's official web portal to all federal, state and local government web resources and services.